Attawapiskat Airport
CYAT : now visible

Airfield :











YOU CAN JOIN US ON...

 
LOGIN :

Register | Disclaimer

   EN    FR    IT 

 









Legend :    VFR   Marginal VFR   IFR   Intensive IFR   Very Intensive IFR
Visi :
Ceiling :
>= 8 km
>= 3000ft
5 to 8 km
1000 to 3000 ft
1500m to 5 km
500 to 1000 ft
800 to 1500m
200 to 500 ft
< 800m
< 200 ft
Symbols :   Thunderstorms  Fog  Heavy snow  Heavy precipitations  Wind > 20 kt






- Airport Elevation : 31 ft
- IATA code : YAT


CYAT - Attawapiskat

CURRENT METAR :
  • 112051Z AUTO 25004KT 9SM FEW049 BKN092 OVC110 20/17 A2950 RMK SLP991 DENSITY ALT 1000FT

EXPIRED METARs :
  • 112030Z AUTO 26007KT 9SM -RA FEW055 BKN076 OVC088 19/16 A2950 RMK SLP992 DENSITY ALT 1000FT
  • 112025Z AUTO 25008KT 9SM FEW050 BKN080 OVC091 20/16 A2949 RMK SLP990 DENSITY ALT 1000FT
  • 112004Z AUTO 26009KT 210V270 9SM -RA FEW060 SCT074 BKN100 21/17 A2949 RMK PRESRR SLP988 DENSITY ALT 1200FT
  • 111938Z AUTO 26006KT 9SM FEW055 SCT079 BKN096 BKN150 21/17 A2946 RMK PRESFR SLP978 DENSITY ALT 1200FT
  • 111921Z AUTO 26020G27KT 9SM -RA FEW055 BKN075 OVC092 23/15 A2947 RMK PRESRR SLP981 DENSITY ALT 1400FT
  • 111910Z AUTO 28010G20KT 9SM -RA SCT075 BKN091 OVC120 24/13 A2944 RMK SLP972 DENSITY ALT 1600FT
  • 111800Z AUTO 24016G24KT 190V260 9SM FEW070 SCT081 SCT120 27/12 A2942 RMK SLP964 DENSITY ALT 1900FT

Expired Forecast.
CZWG FIR / North America



MET'MAP, your aeronautical weather chart ! - Copyright ORBIFLY December 2007 - Disclaimer

ORBIFLY MET'MAP TEAM :

Programming & Development : Alexandra Zaïnal
Concept & original design : Baudouin d'Aumeries
Assistance for programming : Marc-Olivier Méhu
Technical & hardware support : Manuel Goepfert

Contact : metmap@orbifly.com




SOURCES & CREDITS :

   NOAA       Earth
Advisory